sensor_id;sensor_type;location;lat;lon;timestamp;pressure;altitude;pressure_sealevel;temperature
55038;BMP280;40937;53.594;10.034;2023-06-10T00:01:30;102078.06;;;16.87
55038;BMP280;40937;53.594;10.034;2023-06-10T00:04:02;102080.22;;;16.90
55038;BMP280;40937;53.594;10.034;2023-06-10T00:06:30;102075.50;;;16.92
55038;BMP280;40937;53.594;10.034;2023-06-10T00:09:03;102075.50;;;16.92
55038;BMP280;40937;53.594;10.034;2023-06-10T00:11:34;102077.25;;;16.87
55038;BMP280;40937;53.594;10.034;2023-06-10T00:14:03;102079.06;;;16.81
55038;BMP280;40937;53.594;10.034;2023-06-10T00:16:30;102076.94;;;16.83
55038;BMP280;40937;53.594;10.034;2023-06-10T00:18:59;102080.00;;;16.92
55038;BMP280;40937;53.594;10.034;2023-06-10T00:21:27;102077.44;;;16.80
55038;BMP280;40937;53.594;10.034;2023-06-10T00:23:54;102081.00;;;16.69
55038;BMP280;40937;53.594;10.034;2023-06-10T00:26:22;102083.97;;;16.55
55038;BMP280;40937;53.594;10.034;2023-06-10T00:28:50;102077.72;;;16.33
55038;BMP280;40937;53.594;10.034;2023-06-10T00:31:19;102071.75;;;16.26
55038;BMP280;40937;53.594;10.034;2023-06-10T00:33:46;102073.63;;;16.13
55038;BMP280;40937;53.594;10.034;2023-06-10T00:36:13;102072.22;;;16.23
55038;BMP280;40937;53.594;10.034;2023-06-10T00:38:41;102076.38;;;16.19
55038;BMP280;40937;53.594;10.034;2023-06-10T00:41:09;102075.34;;;16.20
55038;BMP280;40937;53.594;10.034;2023-06-10T00:43:36;102075.59;;;16.18
55038;BMP280;40937;53.594;10.034;2023-06-10T00:46:05;102078.50;;;16.17
55038;BMP280;40937;53.594;10.034;2023-06-10T00:48:36;102079.16;;;16.07
55038;BMP280;40937;53.594;10.034;2023-06-10T00:51:05;102084.81;;;15.99
55038;BMP280;40937;53.594;10.034;2023-06-10T00:53:36;102073.81;;;16.07
55038;BMP280;40937;53.594;10.034;2023-06-10T00:56:06;102085.59;;;16.11
55038;BMP280;40937;53.594;10.034;2023-06-10T00:58:35;102080.59;;;16.14
55038;BMP280;40937;53.594;10.034;2023-06-10T01:01:03;102079.31;;;16.17
55038;BMP280;40937;53.594;10.034;2023-06-10T01:03:34;102088.81;;;16.13
55038;BMP280;40937;53.594;10.034;2023-06-10T01:06:08;102087.59;;;16.04
55038;BMP280;40937;53.594;10.034;2023-06-10T01:08:41;102084.09;;;16.03
55038;BMP280;40937;53.594;10.034;2023-06-10T01:11:17;102081.44;;;16.03
55038;BMP280;40937;53.594;10.034;2023-06-10T01:13:48;102088.97;;;16.06
55038;BMP280;40937;53.594;10.034;2023-06-10T01:16:19;102082.50;;;16.02
55038;BMP280;40937;53.594;10.034;2023-06-10T01:18:47;102080.88;;;16.01
55038;BMP280;40937;53.594;10.034;2023-06-10T01:21:20;102086.88;;;16.08
55038;BMP280;40937;53.594;10.034;2023-06-10T01:23:51;102091.84;;;16.05
55038;BMP280;40937;53.594;10.034;2023-06-10T01:26:22;102088.97;;;16.06
55038;BMP280;40937;53.594;10.034;2023-06-10T01:28:54;102086.97;;;16.02
55038;BMP280;40937;53.594;10.034;2023-06-10T01:31:31;102084.41;;;15.90
55038;BMP280;40937;53.594;10.034;2023-06-10T01:34:01;102088.19;;;15.94
55038;BMP280;40937;53.594;10.034;2023-06-10T01:36:32;102093.28;;;15.95
55038;BMP280;40937;53.594;10.034;2023-06-10T01:39:01;102087.63;;;15.92
55038;BMP280;40937;53.594;10.034;2023-06-10T01:41:29;102088.09;;;15.89
55038;BMP280;40937;53.594;10.034;2023-06-10T01:43:57;102093.34;;;15.84
55038;BMP280;40937;53.594;10.034;2023-06-10T01:46:24;102087.41;;;15.82
55038;BMP280;40937;53.594;10.034;2023-06-10T01:48:52;102091.78;;;15.88
55038;BMP280;40937;53.594;10.034;2023-06-10T01:51:19;102088.91;;;15.89
55038;BMP280;40937;53.594;10.034;2023-06-10T01:53:47;102095.06;;;15.90
55038;BMP280;40937;53.594;10.034;2023-06-10T01:56:15;102089.25;;;15.93
55038;BMP280;40937;53.594;10.034;2023-06-10T01:58:46;102080.34;;;15.87
55038;BMP280;40937;53.594;10.034;2023-06-10T02:01:17;102085.81;;;15.81
55038;BMP280;40937;53.594;10.034;2023-06-10T02:03:45;102081.41;;;15.74
55038;BMP280;40937;53.594;10.034;2023-06-10T02:06:13;102079.16;;;15.66
55038;BMP280;40937;53.594;10.034;2023-06-10T02:08:43;102080.09;;;15.60
55038;BMP280;40937;53.594;10.034;2023-06-10T02:11:12;102077.66;;;15.59
55038;BMP280;40937;53.594;10.034;2023-06-10T02:13:39;102072.22;;;15.53
55038;BMP280;40937;53.594;10.034;2023-06-10T02:16:06;102073.25;;;15.52
55038;BMP280;40937;53.594;10.034;2023-06-10T02:18:35;102079.16;;;15.43
55038;BMP280;40937;53.594;10.034;2023-06-10T02:21:02;102081.94;;;15.48
55038;BMP280;40937;53.594;10.034;2023-06-10T02:23:29;102079.78;;;15.45
55038;BMP280;40937;53.594;10.034;2023-06-10T02:25:57;102081.72;;;15.38
55038;BMP280;40937;53.594;10.034;2023-06-10T02:28:26;102076.84;;;15.34
55038;BMP280;40937;53.594;10.034;2023-06-10T02:30:53;102068.09;;;15.34
55038;BMP280;40937;53.594;10.034;2023-06-10T02:33:25;102071.53;;;15.46
55038;BMP280;40937;53.594;10.034;2023-06-10T02:35:53;102075.38;;;15.39
55038;BMP280;40937;53.594;10.034;2023-06-10T02:38:22;102077.19;;;15.38
55038;BMP280;40937;53.594;10.034;2023-06-10T02:40:54;102081.81;;;15.43
55038;BMP280;40937;53.594;10.034;2023-06-10T02:43:27;102074.78;;;15.37
55038;BMP280;40937;53.594;10.034;2023-06-10T02:45:55;102078.97;;;15.32
55038;BMP280;40937;53.594;10.034;2023-06-10T02:48:24;102083.34;;;15.39
55038;BMP280;40937;53.594;10.034;2023-06-10T02:50:55;102078.69;;;15.46
55038;BMP280;40937;53.594;10.034;2023-06-10T02:53:29;102085.88;;;15.45
55038;BMP280;40937;53.594;10.034;2023-06-10T02:56:04;102077.28;;;15.55
55038;BMP280;40937;53.594;10.034;2023-06-10T02:58:35;102080.41;;;15.52
55038;BMP280;40937;53.594;10.034;2023-06-10T03:01:03;102091.19;;;15.57
55038;BMP280;40937;53.594;10.034;2023-06-10T03:03:40;102086.34;;;15.54
55038;BMP280;40937;53.594;10.034;2023-06-10T03:06:11;102091.31;;;15.50
55038;BMP280;40937;53.594;10.034;2023-06-10T03:08:40;102093.38;;;15.48
55038;BMP280;40937;53.594;10.034;2023-06-10T03:11:14;102095.34;;;15.53
55038;BMP280;40937;53.594;10.034;2023-06-10T03:13:44;102095.03;;;15.49
55038;BMP280;40937;53.594;10.034;2023-06-10T03:16:18;102096.63;;;15.50
55038;BMP280;40937;53.594;10.034;2023-06-10T03:18:46;102089.31;;;15.46
55038;BMP280;40937;53.594;10.034;2023-06-10T03:21:24;102090.72;;;15.48
55038;BMP280;40937;53.594;10.034;2023-06-10T03:24:00;102089.22;;;15.52
55038;BMP280;40937;53.594;10.034;2023-06-10T03:26:28;102091.66;;;15.54
55038;BMP280;40937;53.594;10.034;2023-06-10T03:28:57;102092.22;;;15.56
55038;BMP280;40937;53.594;10.034;2023-06-10T03:31:25;102095.44;;;15.58
55038;BMP280;40937;53.594;10.034;2023-06-10T03:33:53;102096.03;;;15.60
55038;BMP280;40937;53.594;10.034;2023-06-10T03:36:21;102100.66;;;15.53
55038;BMP280;40937;53.594;10.034;2023-06-10T03:38:48;102097.47;;;15.51
55038;BMP280;40937;53.594;10.034;2023-06-10T03:44:02;102096.75;;;15.44
55038;BMP280;40937;53.594;10.034;2023-06-10T03:46:29;102093.03;;;15.57
55038;BMP280;40937;53.594;10.034;2023-06-10T03:48:56;102101.13;;;15.50
55038;BMP280;40937;53.594;10.034;2023-06-10T03:51:27;102095.13;;;15.43
55038;BMP280;40937;53.594;10.034;2023-06-10T03:53:54;102094.78;;;15.39
55038;BMP280;40937;53.594;10.034;2023-06-10T03:56:21;102099.31;;;15.39
55038;BMP280;40937;53.594;10.034;2023-06-10T03:58:49;102098.00;;;15.41
55038;BMP280;40937;53.594;10.034;2023-06-10T04:01:18;102082.75;;;15.48
55038;BMP280;40937;53.594;10.034;2023-06-10T04:03:47;102097.69;;;15.38
55038;BMP280;40937;53.594;10.034;2023-06-10T04:06:14;102092.69;;;15.41
55038;BMP280;40937;53.594;10.034;2023-06-10T04:08:42;102097.78;;;15.43
55038;BMP280;40937;53.594;10.034;2023-06-10T04:11:09;102095.94;;;15.43
55038;BMP280;40937;53.594;10.034;2023-06-10T04:13:36;102093.88;;;15.45
55038;BMP280;40937;53.594;10.034;2023-06-10T04:16:04;102091.97;;;15.46
55038;BMP280;40937;53.594;10.034;2023-06-10T04:18:33;102093.72;;;15.52
55038;BMP280;40937;53.594;10.034;2023-06-10T04:21:05;102089.69;;;15.49
55038;BMP280;40937;53.594;10.034;2023-06-10T04:23:33;102094.09;;;15.56
55038;BMP280;40937;53.594;10.034;2023-06-10T04:26:00;102088.63;;;15.62
55038;BMP280;40937;53.594;10.034;2023-06-10T04:28:28;102100.53;;;15.60
55038;BMP280;40937;53.594;10.034;2023-06-10T04:30:56;102089.56;;;15.68
55038;BMP280;40937;53.594;10.034;2023-06-10T04:33:23;102091.97;;;15.69
55038;BMP280;40937;53.594;10.034;2023-06-10T04:35:52;102094.63;;;15.69
55038;BMP280;40937;53.594;10.034;2023-06-10T04:38:22;102089.56;;;15.68
55038;BMP280;40937;53.594;10.034;2023-06-10T04:40:49;102089.31;;;15.69
55038;BMP280;40937;53.594;10.034;2023-06-10T04:43:18;102095.44;;;15.70
55038;BMP280;40937;53.594;10.034;2023-06-10T04:45:46;102091.97;;;15.69
55038;BMP280;40937;53.594;10.034;2023-06-10T04:48:13;102086.66;;;15.69
55038;BMP280;40937;53.594;10.034;2023-06-10T04:50:41;102086.66;;;15.58
55038;BMP280;40937;53.594;10.034;2023-06-10T04:53:09;102085.28;;;15.55
55038;BMP280;40937;53.594;10.034;2023-06-10T04:55:39;102095.44;;;15.58
55038;BMP280;40937;53.594;10.034;2023-06-10T04:58:06;102088.63;;;15.62
55038;BMP280;40937;53.594;10.034;2023-06-10T05:00:33;102085.41;;;15.60
55038;BMP280;40937;53.594;10.034;2023-06-10T05:03:00;102087.84;;;15.62
55038;BMP280;40937;53.594;10.034;2023-06-10T05:05:27;102089.78;;;15.66
55038;BMP280;40937;53.594;10.034;2023-06-10T05:07:55;102087.53;;;15.75
55038;BMP280;40937;53.594;10.034;2023-06-10T05:10:25;102092.72;;;15.82
55038;BMP280;40937;53.594;10.034;2023-06-10T05:12:52;102087.28;;;15.88
55038;BMP280;40937;53.594;10.034;2023-06-10T05:15:19;102088.31;;;15.99
55038;BMP280;40937;53.594;10.034;2023-06-10T05:17:46;102092.69;;;16.05
55038;BMP280;40937;53.594;10.034;2023-06-10T05:20:13;102086.41;;;16.11
55038;BMP280;40937;53.594;10.034;2023-06-10T05:22:41;102092.19;;;16.08
55038;BMP280;40937;53.594;10.034;2023-06-10T05:25:08;102094.75;;;16.03
55038;BMP280;40937;53.594;10.034;2023-06-10T05:27:37;102093.22;;;16.07
55038;BMP280;40937;53.594;10.034;2023-06-10T05:30:07;102099.13;;;16.09
55038;BMP280;40937;53.594;10.034;2023-06-10T05:32:34;102104.56;;;16.14
55038;BMP280;40937;53.594;10.034;2023-06-10T05:35:02;102100.47;;;16.24
55038;BMP280;40937;53.594;10.034;2023-06-10T05:37:30;102089.81;;;16.24
55038;BMP280;40937;53.594;10.034;2023-06-10T05:39:57;102092.09;;;16.32
55038;BMP280;40937;53.594;10.034;2023-06-10T05:42:24;102095.97;;;16.41
55038;BMP280;40937;53.594;10.034;2023-06-10T05:44:53;102090.34;;;16.54
55038;BMP280;40937;53.594;10.034;2023-06-10T05:47:20;102084.50;;;16.57
55038;BMP280;40937;53.594;10.034;2023-06-10T05:49:47;102086.63;;;16.55
55038;BMP280;40937;53.594;10.034;2023-06-10T05:52:15;102087.91;;;16.53
55038;BMP280;40937;53.594;10.034;2023-06-10T05:54:46;102084.69;;;16.51
55038;BMP280;40937;53.594;10.034;2023-06-10T05:57:13;102088.09;;;16.63
55038;BMP280;40937;53.594;10.034;2023-06-10T05:59:40;102089.38;;;16.61
55038;BMP280;40937;53.594;10.034;2023-06-10T06:02:08;102081.78;;;16.52
55038;BMP280;40937;53.594;10.034;2023-06-10T06:04:36;102089.47;;;16.66
55038;BMP280;40937;53.594;10.034;2023-06-10T06:07:03;102087.34;;;16.68
55038;BMP280;40937;53.594;10.034;2023-06-10T06:09:31;102087.06;;;16.81
55038;BMP280;40937;53.594;10.034;2023-06-10T06:11:58;102081.78;;;16.86
55038;BMP280;40937;53.594;10.034;2023-06-10T06:14:25;102076.59;;;16.96
55038;BMP280;40937;53.594;10.034;2023-06-10T06:16:53;102080.38;;;17.01
55038;BMP280;40937;53.594;10.034;2023-06-10T06:19:21;102072.03;;;17.14
55038;BMP280;40937;53.594;10.034;2023-06-10T06:21:48;102068.47;;;17.25
55038;BMP280;40937;53.594;10.034;2023-06-10T06:24:16;102072.88;;;17.36
55038;BMP280;40937;53.594;10.034;2023-06-10T06:26:43;102069.28;;;17.48
55038;BMP280;40937;53.594;10.034;2023-06-10T06:29:11;102072.88;;;17.36
55038;BMP280;40937;53.594;10.034;2023-06-10T06:31:38;102073.16;;;17.18
55038;BMP280;40937;53.594;10.034;2023-06-10T06:34:05;102073.78;;;17.25
55038;BMP280;40937;53.594;10.034;2023-06-10T06:36:33;102074.91;;;17.29
55038;BMP280;40937;53.594;10.034;2023-06-10T06:39:01;102069.75;;;17.23
55038;BMP280;40937;53.594;10.034;2023-06-10T06:41:28;102070.09;;;17.26
55038;BMP280;40937;53.594;10.034;2023-06-10T06:43:55;102073.84;;;17.30
55038;BMP280;40937;53.594;10.034;2023-06-10T06:46:24;102082.00;;;17.40
55038;BMP280;40937;53.594;10.034;2023-06-10T06:48:51;102076.19;;;17.44
55038;BMP280;40937;53.594;10.034;2023-06-10T06:51:24;102080.97;;;17.64
55038;BMP280;40937;53.594;10.034;2023-06-10T06:53:53;102080.25;;;17.73
55038;BMP280;40937;53.594;10.034;2023-06-10T06:56:24;102078.81;;;17.66
55038;BMP280;40937;53.594;10.034;2023-06-10T06:58:52;102074.88;;;17.68
55038;BMP280;40937;53.594;10.034;2023-06-10T07:01:20;102080.75;;;17.70
55038;BMP280;40937;53.594;10.034;2023-06-10T07:03:47;102081.38;;;17.77
55038;BMP280;40937;53.594;10.034;2023-06-10T07:06:14;102071.28;;;17.85
55038;BMP280;40937;53.594;10.034;2023-06-10T07:08:41;102077.78;;;17.94
55038;BMP280;40937;53.594;10.034;2023-06-10T07:11:10;102080.44;;;17.94
55038;BMP280;40937;53.594;10.034;2023-06-10T07:13:37;102088.50;;;17.99
55038;BMP280;40937;53.594;10.034;2023-06-10T07:16:04;102085.19;;;18.09
55038;BMP280;40937;53.594;10.034;2023-06-10T07:18:32;102090.84;;;18.17
55038;BMP280;40937;53.594;10.034;2023-06-10T07:20:59;102091.72;;;18.28
55038;BMP280;40937;53.594;10.034;2023-06-10T07:23:26;102089.31;;;18.27
55038;BMP280;40937;53.594;10.034;2023-06-10T07:25:53;102094.16;;;18.30
55038;BMP280;40937;53.594;10.034;2023-06-10T07:28:23;102094.75;;;18.37
55038;BMP280;40937;53.594;10.034;2023-06-10T07:30:50;102094.16;;;18.30
55038;BMP280;40937;53.594;10.034;2023-06-10T07:33:17;102092.66;;;18.44
55038;BMP280;40937;53.594;10.034;2023-06-10T07:35:44;102095.44;;;18.59
55038;BMP280;40937;53.594;10.034;2023-06-10T07:38:11;102099.72;;;18.55
55038;BMP280;40937;53.594;10.034;2023-06-10T07:40:39;102082.66;;;18.66
55038;BMP280;40937;53.594;10.034;2023-06-10T07:43:06;102080.84;;;18.72
55038;BMP280;40937;53.594;10.034;2023-06-10T07:45:39;102083.81;;;18.81
55038;BMP280;40937;53.594;10.034;2023-06-10T07:48:06;102087.63;;;18.85
55038;BMP280;40937;53.594;10.034;2023-06-10T07:50:34;102083.91;;;18.91
55038;BMP280;40937;53.594;10.034;2023-06-10T07:53:01;102079.34;;;18.92
55038;BMP280;40937;53.594;10.034;2023-06-10T07:55:29;102081.81;;;18.98
55038;BMP280;40937;53.594;10.034;2023-06-10T07:57:56;102084.81;;;19.12
55038;BMP280;40937;53.594;10.034;2023-06-10T08:00:23;102078.94;;;19.15
55038;BMP280;40937;53.594;10.034;2023-06-10T08:02:52;102071.75;;;19.21
55038;BMP280;40937;53.594;10.034;2023-06-10T08:05:20;102074.16;;;19.22
55038;BMP280;40937;53.594;10.034;2023-06-10T08:07:47;102066.13;;;19.27
55038;BMP280;40937;53.594;10.034;2023-06-10T08:10:14;102077.69;;;19.38
55038;BMP280;40937;53.594;10.034;2023-06-10T08:12:42;102071.56;;;19.48
55038;BMP280;40937;53.594;10.034;2023-06-10T08:15:09;102074.50;;;19.46
55038;BMP280;40937;53.594;10.034;2023-06-10T08:17:37;102078.81;;;19.53
55038;BMP280;40937;53.594;10.034;2023-06-10T08:20:07;102080.41;;;19.59
55038;BMP280;40937;53.594;10.034;2023-06-10T08:22:34;102081.50;;;19.68
55038;BMP280;40937;53.594;10.034;2023-06-10T08:25:01;102072.69;;;19.72
55038;BMP280;40937;53.594;10.034;2023-06-10T08:27:28;102078.06;;;19.78
55038;BMP280;40937;53.594;10.034;2023-06-10T08:29:55;102077.28;;;19.82
55038;BMP280;40937;53.594;10.034;2023-06-10T08:32:24;102078.38;;;19.91
55038;BMP280;40937;53.594;10.034;2023-06-10T08:34:51;102092.84;;;20.06
55038;BMP280;40937;53.594;10.034;2023-06-10T08:37:19;102085.88;;;20.10
55038;BMP280;40937;53.594;10.034;2023-06-10T08:39:46;102077.03;;;20.09
55038;BMP280;40937;53.594;10.034;2023-06-10T08:42:22;102084.25;;;20.14
55038;BMP280;40937;53.594;10.034;2023-06-10T08:44:53;102079.44;;;20.21
55038;BMP280;40937;53.594;10.034;2023-06-10T08:47:22;102084.81;;;20.21
55038;BMP280;40937;53.594;10.034;2023-06-10T08:49:51;102085.34;;;20.28
55038;BMP280;40937;53.594;10.034;2023-06-10T08:52:20;102079.72;;;20.35
55038;BMP280;40937;53.594;10.034;2023-06-10T08:54:52;102086.41;;;20.43
55038;BMP280;40937;53.594;10.034;2023-06-10T08:57:20;102075.69;;;20.43
55038;BMP280;40937;53.594;10.034;2023-06-10T08:59:48;102077.00;;;20.50
55038;BMP280;40937;53.594;10.034;2023-06-10T09:02:16;102073.47;;;20.65
55038;BMP280;40937;53.594;10.034;2023-06-10T09:04:46;102076.16;;;20.75
55038;BMP280;40937;53.594;10.034;2023-06-10T09:07:15;102070.81;;;20.75
55038;BMP280;40937;53.594;10.034;2023-06-10T09:09:44;102063.81;;;20.74
55038;BMP280;40937;53.594;10.034;2023-06-10T09:12:13;102064.31;;;20.82
55038;BMP280;40937;53.594;10.034;2023-06-10T09:14:41;102069.34;;;20.93
55038;BMP280;40937;53.594;10.034;2023-06-10T09:17:08;102063.19;;;20.98
55038;BMP280;40937;53.594;10.034;2023-06-10T09:19:36;102066.94;;;21.02
55038;BMP280;40937;53.594;10.034;2023-06-10T09:22:05;102066.91;;;21.07
55038;BMP280;40937;53.594;10.034;2023-06-10T09:24:33;102066.31;;;21.15
55038;BMP280;40937;53.594;10.034;2023-06-10T09:27:06;102059.31;;;21.25
55038;BMP280;40937;53.594;10.034;2023-06-10T09:29:45;102064.56;;;21.45
55038;BMP280;40937;53.594;10.034;2023-06-10T09:32:13;102061.38;;;21.43
55038;BMP280;40937;53.594;10.034;2023-06-10T09:34:40;102059.78;;;21.42
55038;BMP280;40937;53.594;10.034;2023-06-10T09:37:07;102056.25;;;21.41
55038;BMP280;40937;53.594;10.034;2023-06-10T09:39:38;102055.97;;;21.48
55038;BMP280;40937;53.594;10.034;2023-06-10T09:42:15;102053.25;;;21.53
55038;BMP280;40937;53.594;10.034;2023-06-10T09:44:49;102053.19;;;21.58
55038;BMP280;40937;53.594;10.034;2023-06-10T09:47:20;102056.38;;;21.65
55038;BMP280;40937;53.594;10.034;2023-06-10T09:49:49;102048.78;;;21.73
55038;BMP280;40937;53.594;10.034;2023-06-10T09:52:21;102053.19;;;21.93
55038;BMP280;40937;53.594;10.034;2023-06-10T09:54:48;102052.38;;;21.92
55038;BMP280;40937;53.594;10.034;2023-06-10T09:57:18;102049.63;;;22.02
55038;BMP280;40937;53.594;10.034;2023-06-10T09:59:45;102062.97;;;22.13
55038;BMP280;40937;53.594;10.034;2023-06-10T10:02:14;102052.06;;;22.28
55038;BMP280;40937;53.594;10.034;2023-06-10T10:04:42;102055.25;;;22.35
55038;BMP280;40937;53.594;10.034;2023-06-10T10:07:09;102060.06;;;22.33
55038;BMP280;40937;53.594;10.034;2023-06-10T10:09:36;102060.47;;;22.45
55038;BMP280;40937;53.594;10.034;2023-06-10T10:12:09;102058.25;;;22.52
55038;BMP280;40937;53.594;10.034;2023-06-10T10:14:39;102060.88;;;22.58
55038;BMP280;40937;53.594;10.034;2023-06-10T10:17:09;102058.16;;;22.63
55038;BMP280;40937;53.594;10.034;2023-06-10T10:19:43;102055.38;;;22.68
55038;BMP280;40937;53.594;10.034;2023-06-10T10:22:17;102059.09;;;22.72
55038;BMP280;40937;53.594;10.034;2023-06-10T10:24:49;102065.41;;;22.86
55038;BMP280;40937;53.594;10.034;2023-06-10T10:27:18;102055.63;;;22.90
55038;BMP280;40937;53.594;10.034;2023-06-10T10:29:52;102050.94;;;23.01
55038;BMP280;40937;53.594;10.034;2023-06-10T10:32:26;102047.00;;;23.12
55038;BMP280;40937;53.594;10.034;2023-06-10T10:35:03;102053.22;;;23.13
55038;BMP280;40937;53.594;10.034;2023-06-10T10:37:37;102048.69;;;23.27
55038;BMP280;40937;53.594;10.034;2023-06-10T10:40:06;102040.47;;;23.37
55038;BMP280;40937;53.594;10.034;2023-06-10T10:42:34;102046.56;;;23.43
55038;BMP280;40937;53.594;10.034;2023-06-10T10:45:06;102042.47;;;23.46
55038;BMP280;40937;53.594;10.034;2023-06-10T10:47:35;102045.00;;;23.56
55038;BMP280;40937;53.594;10.034;2023-06-10T10:50:17;102055.59;;;23.66
55038;BMP280;40937;53.594;10.034;2023-06-10T10:52:52;102037.25;;;23.68
55038;BMP280;40937;53.594;10.034;2023-06-10T10:55:25;102047.44;;;23.71
55038;BMP280;40937;53.594;10.034;2023-06-10T10:57:57;102046.66;;;23.84
55038;BMP280;40937;53.594;10.034;2023-06-10T11:00:28;102040.84;;;23.77
55038;BMP280;40937;53.594;10.034;2023-06-10T11:03:00;102033.31;;;23.79
55038;BMP280;40937;53.594;10.034;2023-06-10T11:05:35;102040.13;;;23.91
55038;BMP280;40937;53.594;10.034;2023-06-10T11:08:02;102043.81;;;23.95
55038;BMP280;40937;53.594;10.034;2023-06-10T11:10:31;102040.13;;;24.04
55038;BMP280;40937;53.594;10.034;2023-06-10T11:12:59;102043.75;;;24.14
55038;BMP280;40937;53.594;10.034;2023-06-10T11:15:29;102039.63;;;24.16
55038;BMP280;40937;53.594;10.034;2023-06-10T11:18:24;102042.13;;;24.26
55038;BMP280;40937;53.594;10.034;2023-06-10T11:20:54;102041.94;;;24.37
55038;BMP280;40937;53.594;10.034;2023-06-10T11:23:35;102035.22;;;24.48
55038;BMP280;40937;53.594;10.034;2023-06-10T11:26:16;102035.72;;;24.50
55038;BMP280;40937;53.594;10.034;2023-06-10T11:29:04;102036.63;;;24.59
55038;BMP280;40937;53.594;10.034;2023-06-10T11:31:36;102034.31;;;24.66
55038;BMP280;40937;53.594;10.034;2023-06-10T11:34:06;102038.06;;;24.79
55038;BMP280;40937;53.594;10.034;2023-06-10T11:36:36;102033.25;;;24.90
55038;BMP280;40937;53.594;10.034;2023-06-10T11:39:06;102029.19;;;25.01
55038;BMP280;40937;53.594;10.034;2023-06-10T11:41:34;102035.59;;;25.05
55038;BMP280;40937;53.594;10.034;2023-06-10T11:44:03;102042.94;;;24.91
55038;BMP280;40937;53.594;10.034;2023-06-10T11:46:30;102019.28;;;24.88
55038;BMP280;40937;53.594;10.034;2023-06-10T11:49:00;102025.84;;;24.95
55038;BMP280;40937;53.594;10.034;2023-06-10T11:51:29;102027.03;;;25.03
55038;BMP280;40937;53.594;10.034;2023-06-10T11:53:57;102023.56;;;25.11
55038;BMP280;40937;53.594;10.034;2023-06-10T11:56:26;102014.84;;;25.14
55038;BMP280;40937;53.594;10.034;2023-06-10T11:58:54;102022.59;;;25.30
55038;BMP280;40937;53.594;10.034;2023-06-10T12:01:24;102025.03;;;25.40
55038;BMP280;40937;53.594;10.034;2023-06-10T12:04:01;102031.19;;;25.54
55038;BMP280;40937;53.594;10.034;2023-06-10T12:06:37;102031.53;;;25.61
55038;BMP280;40937;53.594;10.034;2023-06-10T12:09:05;102025.78;;;25.54
55038;BMP280;40937;53.594;10.034;2023-06-10T12:11:33;102028.81;;;25.61
55038;BMP280;40937;53.594;10.034;2023-06-10T12:14:00;102023.28;;;25.67
55038;BMP280;40937;53.594;10.034;2023-06-10T12:16:29;102018.91;;;25.79
55038;BMP280;40937;53.594;10.034;2023-06-10T12:19:02;102011.44;;;25.85
55038;BMP280;40937;53.594;10.034;2023-06-10T12:21:32;102021.63;;;25.97
55038;BMP280;40937;53.594;10.034;2023-06-10T12:24:05;102010.53;;;25.98
55038;BMP280;40937;53.594;10.034;2023-06-10T12:26:38;102007.66;;;26.03
55038;BMP280;40937;53.594;10.034;2023-06-10T12:31:55;102010.75;;;26.28
55038;BMP280;40937;53.594;10.034;2023-06-10T12:34:35;101990.72;;;26.29
55038;BMP280;40937;53.594;10.034;2023-06-10T12:37:04;102002.50;;;26.33
55038;BMP280;40937;53.594;10.034;2023-06-10T12:39:34;101985.13;;;26.34
55038;BMP280;40937;53.594;10.034;2023-06-10T12:42:02;101988.63;;;26.35
55038;BMP280;40937;53.594;10.034;2023-06-10T12:44:31;101987.53;;;26.44
55038;BMP280;40937;53.594;10.034;2023-06-10T12:46:59;101981.81;;;26.54
55038;BMP280;40937;53.594;10.034;2023-06-10T12:49:26;101980.22;;;26.45
55038;BMP280;40937;53.594;10.034;2023-06-10T12:51:55;101978.50;;;26.49
55038;BMP280;40937;53.594;10.034;2023-06-10T12:54:25;101981.19;;;26.75
55038;BMP280;40937;53.594;10.034;2023-06-10T12:56:52;101973.81;;;26.84
55038;BMP280;40937;53.594;10.034;2023-06-10T12:59:19;101970.97;;;26.89
55038;BMP280;40937;53.594;10.034;2023-06-10T13:01:50;101969.84;;;26.99
55038;BMP280;40937;53.594;10.034;2023-06-10T13:04:17;101973.63;;;27.07
55038;BMP280;40937;53.594;10.034;2023-06-10T13:06:45;101979.38;;;27.14
55038;BMP280;40937;53.594;10.034;2023-06-10T13:09:14;101975.38;;;27.20
55038;BMP280;40937;53.594;10.034;2023-06-10T13:11:42;101964.34;;;27.16
55038;BMP280;40937;53.594;10.034;2023-06-10T13:14:10;101963.22;;;27.26
55038;BMP280;40937;53.594;10.034;2023-06-10T13:16:37;101969.06;;;27.37
55038;BMP280;40937;53.594;10.034;2023-06-10T13:19:05;101966.47;;;27.49
55038;BMP280;40937;53.594;10.034;2023-06-10T13:21:35;101968.97;;;27.63
55038;BMP280;40937;53.594;10.034;2023-06-10T13:24:03;101962.53;;;27.47
55038;BMP280;40937;53.594;10.034;2023-06-10T13:26:31;101968.88;;;27.51
55038;BMP280;40937;53.594;10.034;2023-06-10T13:29:01;101958.19;;;27.54
55038;BMP280;40937;53.594;10.034;2023-06-10T13:31:29;101962.75;;;27.62
55038;BMP280;40937;53.594;10.034;2023-06-10T13:33:56;101960.47;;;27.73
55038;BMP280;40937;53.594;10.034;2023-06-10T13:36:23;101956.38;;;27.58
55038;BMP280;40937;53.594;10.034;2023-06-10T13:38:50;101957.31;;;27.33
55038;BMP280;40937;53.594;10.034;2023-06-10T13:41:17;101952.47;;;27.38
55038;BMP280;40937;53.594;10.034;2023-06-10T13:43:46;101950.84;;;27.46
55038;BMP280;40937;53.594;10.034;2023-06-10T13:46:13;101952.22;;;27.61
55038;BMP280;40937;53.594;10.034;2023-06-10T13:48:40;101948.97;;;27.76
55038;BMP280;40937;53.594;10.034;2023-06-10T13:51:07;101949.41;;;27.78
55038;BMP280;40937;53.594;10.034;2023-06-10T13:53:36;101948.19;;;27.97
55038;BMP280;40937;53.594;10.034;2023-06-10T13:56:03;101949.88;;;28.10
55038;BMP280;40937;53.594;10.034;2023-06-10T13:58:31;101952.97;;;28.21
55038;BMP280;40937;53.594;10.034;2023-06-10T14:00:59;101940.78;;;28.27